sensor_id;sensor_type;location;lat;lon;timestamp;P1;durP1;ratioP1;P2;durP2;ratioP2
46589;SDS011;32313;48.722;9.362;2023-04-25T00:00:26;6.83;;;6.40;;
46589;SDS011;32313;48.722;9.362;2023-04-25T00:02:51;6.43;;;6.00;;
46589;SDS011;32313;48.722;9.362;2023-04-25T00:05:17;6.70;;;6.20;;
46589;SDS011;32313;48.722;9.362;2023-04-25T00:07:44;7.23;;;6.73;;
46589;SDS011;32313;48.722;9.362;2023-04-25T00:10:11;6.33;;;5.83;;
46589;SDS011;32313;48.722;9.362;2023-04-25T00:12:37;6.57;;;5.97;;
46589;SDS011;32313;48.722;9.362;2023-04-25T00:15:04;6.03;;;5.53;;
46589;SDS011;32313;48.722;9.362;2023-04-25T00:17:30;6.97;;;6.27;;
46589;SDS011;32313;48.722;9.362;2023-04-25T00:19:56;6.93;;;6.43;;
46589;SDS011;32313;48.722;9.362;2023-04-25T00:22:23;7.30;;;6.70;;
46589;SDS011;32313;48.722;9.362;2023-04-25T00:24:49;7.03;;;6.43;;
46589;SDS011;32313;48.722;9.362;2023-04-25T00:27:15;7.33;;;6.77;;
46589;SDS011;32313;48.722;9.362;2023-04-25T00:29:41;6.77;;;6.27;;
46589;SDS011;32313;48.722;9.362;2023-04-25T00:32:07;6.67;;;6.20;;
46589;SDS011;32313;48.722;9.362;2023-04-25T00:34:32;7.53;;;7.03;;
46589;SDS011;32313;48.722;9.362;2023-04-25T00:36:58;6.83;;;6.33;;
46589;SDS011;32313;48.722;9.362;2023-04-25T00:39:26;6.27;;;5.77;;
46589;SDS011;32313;48.722;9.362;2023-04-25T00:41:52;7.57;;;7.07;;
46589;SDS011;32313;48.722;9.362;2023-04-25T00:44:19;7.57;;;7.07;;
46589;SDS011;32313;48.722;9.362;2023-04-25T00:46:46;7.13;;;6.63;;
46589;SDS011;32313;48.722;9.362;2023-04-25T00:49:13;8.47;;;6.77;;
46589;SDS011;32313;48.722;9.362;2023-04-25T00:51:41;7.60;;;7.00;;
46589;SDS011;32313;48.722;9.362;2023-04-25T00:54:07;7.50;;;6.90;;
46589;SDS011;32313;48.722;9.362;2023-04-25T00:56:32;6.50;;;6.03;;
46589;SDS011;32313;48.722;9.362;2023-04-25T00:58:58;7.13;;;6.53;;
46589;SDS011;32313;48.722;9.362;2023-04-25T01:01:24;6.50;;;6.00;;
46589;SDS011;32313;48.722;9.362;2023-04-25T01:03:50;7.70;;;7.10;;
46589;SDS011;32313;48.722;9.362;2023-04-25T01:06:17;8.50;;;7.50;;
46589;SDS011;32313;48.722;9.362;2023-04-25T01:08:43;7.90;;;7.20;;
46589;SDS011;32313;48.722;9.362;2023-04-25T01:11:08;7.93;;;6.93;;
46589;SDS011;32313;48.722;9.362;2023-04-25T01:13:34;8.20;;;7.50;;
46589;SDS011;32313;48.722;9.362;2023-04-25T01:16:01;6.50;;;6.00;;
46589;SDS011;32313;48.722;9.362;2023-04-25T01:18:28;7.40;;;6.90;;
46589;SDS011;32313;48.722;9.362;2023-04-25T01:20:54;7.13;;;6.73;;
46589;SDS011;32313;48.722;9.362;2023-04-25T01:23:21;6.87;;;6.37;;
46589;SDS011;32313;48.722;9.362;2023-04-25T01:25:50;7.40;;;6.80;;
46589;SDS011;32313;48.722;9.362;2023-04-25T01:28:16;6.80;;;6.30;;
46589;SDS011;32313;48.722;9.362;2023-04-25T01:30:42;7.97;;;7.37;;
46589;SDS011;32313;48.722;9.362;2023-04-25T01:33:09;11.07;;;8.37;;
46589;SDS011;32313;48.722;9.362;2023-04-25T01:35:35;8.90;;;8.07;;
46589;SDS011;32313;48.722;9.362;2023-04-25T01:38:00;7.83;;;7.20;;
46589;SDS011;32313;48.722;9.362;2023-04-25T01:40:26;7.57;;;6.93;;
46589;SDS011;32313;48.722;9.362;2023-04-25T01:42:53;7.67;;;7.07;;
46589;SDS011;32313;48.722;9.362;2023-04-25T01:45:19;7.43;;;6.70;;
46589;SDS011;32313;48.722;9.362;2023-04-25T01:47:47;7.00;;;6.50;;
46589;SDS011;32313;48.722;9.362;2023-04-25T01:50:15;6.90;;;6.40;;
46589;SDS011;32313;48.722;9.362;2023-04-25T01:52:42;7.27;;;6.67;;
46589;SDS011;32313;48.722;9.362;2023-04-25T01:55:08;7.80;;;7.20;;
46589;SDS011;32313;48.722;9.362;2023-04-25T01:57:39;7.27;;;6.77;;
46589;SDS011;32313;48.722;9.362;2023-04-25T02:00:05;7.60;;;7.10;;
46589;SDS011;32313;48.722;9.362;2023-04-25T02:02:37;7.17;;;6.57;;
46589;SDS011;32313;48.722;9.362;2023-04-25T02:05:06;7.77;;;7.17;;
46589;SDS011;32313;48.722;9.362;2023-04-25T02:07:34;8.03;;;7.30;;
46589;SDS011;32313;48.722;9.362;2023-04-25T02:10:00;7.70;;;7.10;;
46589;SDS011;32313;48.722;9.362;2023-04-25T02:12:29;7.10;;;6.50;;
46589;SDS011;32313;48.722;9.362;2023-04-25T02:15:14;8.10;;;7.57;;
46589;SDS011;32313;48.722;9.362;2023-04-25T02:17:49;7.40;;;6.80;;
46589;SDS011;32313;48.722;9.362;2023-04-25T02:20:15;7.70;;;7.20;;
46589;SDS011;32313;48.722;9.362;2023-04-25T02:22:44;8.20;;;7.50;;
46589;SDS011;32313;48.722;9.362;2023-04-25T02:25:11;9.17;;;8.47;;
46589;SDS011;32313;48.722;9.362;2023-04-25T02:27:37;9.40;;;8.70;;
46589;SDS011;32313;48.722;9.362;2023-04-25T02:30:03;7.83;;;7.23;;
46589;SDS011;32313;48.722;9.362;2023-04-25T02:32:32;9.07;;;8.33;;
46589;SDS011;32313;48.722;9.362;2023-04-25T02:34:59;8.83;;;8.13;;
46589;SDS011;32313;48.722;9.362;2023-04-25T02:37:31;8.27;;;7.67;;
46589;SDS011;32313;48.722;9.362;2023-04-25T02:39:57;9.30;;;8.40;;
46589;SDS011;32313;48.722;9.362;2023-04-25T02:42:23;8.90;;;8.30;;
46589;SDS011;32313;48.722;9.362;2023-04-25T02:44:49;9.27;;;8.47;;
46589;SDS011;32313;48.722;9.362;2023-04-25T02:47:14;9.30;;;8.67;;
46589;SDS011;32313;48.722;9.362;2023-04-25T02:49:41;9.07;;;8.17;;
46589;SDS011;32313;48.722;9.362;2023-04-25T02:52:08;10.53;;;9.70;;
46589;SDS011;32313;48.722;9.362;2023-04-25T02:54:34;8.53;;;7.93;;
46589;SDS011;32313;48.722;9.362;2023-04-25T02:57:01;10.83;;;9.93;;
46589;SDS011;32313;48.722;9.362;2023-04-25T02:59:33;9.33;;;8.33;;
46589;SDS011;32313;48.722;9.362;2023-04-25T03:01:59;10.47;;;9.53;;
46589;SDS011;32313;48.722;9.362;2023-04-25T03:04:25;10.93;;;10.10;;
46589;SDS011;32313;48.722;9.362;2023-04-25T03:06:51;11.90;;;10.80;;
46589;SDS011;32313;48.722;9.362;2023-04-25T03:09:19;9.77;;;8.97;;
46589;SDS011;32313;48.722;9.362;2023-04-25T03:11:46;9.80;;;9.10;;
46589;SDS011;32313;48.722;9.362;2023-04-25T03:14:12;10.33;;;9.50;;
46589;SDS011;32313;48.722;9.362;2023-04-25T03:16:38;9.60;;;8.80;;
46589;SDS011;32313;48.722;9.362;2023-04-25T03:19:04;11.07;;;10.00;;
46589;SDS011;32313;48.722;9.362;2023-04-25T03:21:31;9.47;;;8.67;;
46589;SDS011;32313;48.722;9.362;2023-04-25T03:23:58;9.77;;;9.07;;
46589;SDS011;32313;48.722;9.362;2023-04-25T03:26:25;10.70;;;9.60;;
46589;SDS011;32313;48.722;9.362;2023-04-25T03:28:51;9.93;;;9.07;;
46589;SDS011;32313;48.722;9.362;2023-04-25T03:31:17;10.20;;;9.30;;
46589;SDS011;32313;48.722;9.362;2023-04-25T03:33:43;10.83;;;9.93;;
46589;SDS011;32313;48.722;9.362;2023-04-25T03:36:09;9.87;;;8.90;;
46589;SDS011;32313;48.722;9.362;2023-04-25T03:38:35;11.13;;;10.17;;
46589;SDS011;32313;48.722;9.362;2023-04-25T03:41:02;10.83;;;9.93;;
46589;SDS011;32313;48.722;9.362;2023-04-25T03:43:43;10.77;;;9.77;;
46589;SDS011;32313;48.722;9.362;2023-04-25T03:46:11;10.17;;;9.37;;
46589;SDS011;32313;48.722;9.362;2023-04-25T03:48:38;10.17;;;9.27;;
46589;SDS011;32313;48.722;9.362;2023-04-25T03:51:05;9.80;;;8.97;;
46589;SDS011;32313;48.722;9.362;2023-04-25T03:53:33;9.73;;;8.90;;
46589;SDS011;32313;48.722;9.362;2023-04-25T03:56:14;10.07;;;9.23;;
46589;SDS011;32313;48.722;9.362;2023-04-25T03:58:40;8.90;;;8.20;;
46589;SDS011;32313;48.722;9.362;2023-04-25T04:01:06;9.40;;;8.60;;
46589;SDS011;32313;48.722;9.362;2023-04-25T04:03:35;10.07;;;9.07;;
46589;SDS011;32313;48.722;9.362;2023-04-25T04:06:04;9.43;;;8.63;;
46589;SDS011;32313;48.722;9.362;2023-04-25T04:08:34;9.23;;;8.43;;
46589;SDS011;32313;48.722;9.362;2023-04-25T04:11:01;9.67;;;8.67;;
46589;SDS011;32313;48.722;9.362;2023-04-25T04:13:27;10.27;;;9.23;;
46589;SDS011;32313;48.722;9.362;2023-04-25T04:15:54;10.20;;;9.27;;
46589;SDS011;32313;48.722;9.362;2023-04-25T04:18:21;9.73;;;8.93;;
46589;SDS011;32313;48.722;9.362;2023-04-25T04:20:47;9.13;;;8.37;;
46589;SDS011;32313;48.722;9.362;2023-04-25T04:23:12;10.57;;;9.57;;
46589;SDS011;32313;48.722;9.362;2023-04-25T04:25:39;10.67;;;9.77;;
46589;SDS011;32313;48.722;9.362;2023-04-25T04:28:06;9.20;;;8.30;;
46589;SDS011;32313;48.722;9.362;2023-04-25T04:30:50;10.20;;;9.20;;
46589;SDS011;32313;48.722;9.362;2023-04-25T04:33:17;11.23;;;9.67;;
46589;SDS011;32313;48.722;9.362;2023-04-25T04:35:51;11.13;;;10.00;;
46589;SDS011;32313;48.722;9.362;2023-04-25T04:38:18;10.33;;;9.37;;
46589;SDS011;32313;48.722;9.362;2023-04-25T04:40:44;10.20;;;9.30;;
46589;SDS011;32313;48.722;9.362;2023-04-25T04:43:19;9.70;;;8.93;;
46589;SDS011;32313;48.722;9.362;2023-04-25T04:46:20;9.03;;;8.23;;
46589;SDS011;32313;48.722;9.362;2023-04-25T04:49:12;9.83;;;9.13;;
46589;SDS011;32313;48.722;9.362;2023-04-25T04:51:50;8.83;;;8.03;;
46589;SDS011;32313;48.722;9.362;2023-04-25T04:54:51;10.13;;;9.33;;
46589;SDS011;32313;48.722;9.362;2023-04-25T04:57:48;9.37;;;8.47;;
46589;SDS011;32313;48.722;9.362;2023-04-25T05:00:34;9.70;;;8.90;;
46589;SDS011;32313;48.722;9.362;2023-04-25T05:03:16;10.40;;;8.73;;
46589;SDS011;32313;48.722;9.362;2023-04-25T05:06:09;9.23;;;8.33;;
46589;SDS011;32313;48.722;9.362;2023-04-25T05:09:06;9.17;;;8.27;;
46589;SDS011;32313;48.722;9.362;2023-04-25T05:11:47;8.70;;;8.00;;
46589;SDS011;32313;48.722;9.362;2023-04-25T05:14:32;10.40;;;8.57;;
46589;SDS011;32313;48.722;9.362;2023-04-25T05:17:17;8.80;;;7.93;;
46589;SDS011;32313;48.722;9.362;2023-04-25T05:20:01;8.33;;;7.27;;
46589;SDS011;32313;48.722;9.362;2023-04-25T05:22:49;8.50;;;7.70;;
46589;SDS011;32313;48.722;9.362;2023-04-25T05:25:35;8.20;;;7.47;;
46589;SDS011;32313;48.722;9.362;2023-04-25T05:28:09;8.73;;;7.80;;
46589;SDS011;32313;48.722;9.362;2023-04-25T05:30:53;8.30;;;7.63;;
46589;SDS011;32313;48.722;9.362;2023-04-25T05:33:27;8.87;;;7.77;;
46589;SDS011;32313;48.722;9.362;2023-04-25T05:35:53;8.23;;;7.57;;
46589;SDS011;32313;48.722;9.362;2023-04-25T05:38:19;8.30;;;7.13;;
46589;SDS011;32313;48.722;9.362;2023-04-25T05:41:03;9.13;;;8.07;;
46589;SDS011;32313;48.722;9.362;2023-04-25T05:43:54;8.90;;;7.17;;
46589;SDS011;32313;48.722;9.362;2023-04-25T05:46:26;7.57;;;6.97;;
46589;SDS011;32313;48.722;9.362;2023-04-25T05:49:21;7.57;;;6.97;;
46589;SDS011;32313;48.722;9.362;2023-04-25T05:51:53;7.17;;;6.47;;
46589;SDS011;32313;48.722;9.362;2023-04-25T05:54:37;6.93;;;6.30;;
46589;SDS011;32313;48.722;9.362;2023-04-25T05:57:03;7.60;;;6.80;;
46589;SDS011;32313;48.722;9.362;2023-04-25T05:59:29;6.80;;;6.30;;
46589;SDS011;32313;48.722;9.362;2023-04-25T06:01:55;7.03;;;6.53;;
46589;SDS011;32313;48.722;9.362;2023-04-25T06:04:21;8.53;;;6.77;;
46589;SDS011;32313;48.722;9.362;2023-04-25T06:06:47;9.07;;;7.13;;
46589;SDS011;32313;48.722;9.362;2023-04-25T06:09:13;6.70;;;6.10;;
46589;SDS011;32313;48.722;9.362;2023-04-25T06:11:38;6.37;;;5.80;;
46589;SDS011;32313;48.722;9.362;2023-04-25T06:14:05;6.27;;;5.77;;
46589;SDS011;32313;48.722;9.362;2023-04-25T06:16:33;6.77;;;5.70;;
46589;SDS011;32313;48.722;9.362;2023-04-25T06:18:59;6.03;;;5.53;;
46589;SDS011;32313;48.722;9.362;2023-04-25T06:21:25;5.90;;;5.30;;
46589;SDS011;32313;48.722;9.362;2023-04-25T06:23:51;6.00;;;5.50;;
46589;SDS011;32313;48.722;9.362;2023-04-25T06:26:20;5.83;;;5.33;;
46589;SDS011;32313;48.722;9.362;2023-04-25T06:28:47;6.73;;;5.57;;
46589;SDS011;32313;48.722;9.362;2023-04-25T06:31:12;5.33;;;4.70;;
46589;SDS011;32313;48.722;9.362;2023-04-25T06:33:39;6.93;;;5.20;;
46589;SDS011;32313;48.722;9.362;2023-04-25T06:36:05;5.20;;;4.70;;
46589;SDS011;32313;48.722;9.362;2023-04-25T06:38:32;5.47;;;4.97;;
46589;SDS011;32313;48.722;9.362;2023-04-25T06:40:58;5.47;;;4.97;;
46589;SDS011;32313;48.722;9.362;2023-04-25T06:43:27;5.07;;;4.67;;
46589;SDS011;32313;48.722;9.362;2023-04-25T06:46:22;4.73;;;4.43;;
46589;SDS011;32313;48.722;9.362;2023-04-25T06:48:51;5.30;;;4.90;;
46589;SDS011;32313;48.722;9.362;2023-04-25T06:51:18;4.80;;;4.50;;
46589;SDS011;32313;48.722;9.362;2023-04-25T06:53:44;5.30;;;4.90;;
46589;SDS011;32313;48.722;9.362;2023-04-25T06:56:18;4.70;;;4.30;;
46589;SDS011;32313;48.722;9.362;2023-04-25T06:58:54;6.03;;;5.53;;
46589;SDS011;32313;48.722;9.362;2023-04-25T07:01:28;5.73;;;5.33;;
46589;SDS011;32313;48.722;9.362;2023-04-25T07:03:54;6.37;;;5.23;;
46589;SDS011;32313;48.722;9.362;2023-04-25T07:06:21;6.07;;;5.57;;
46589;SDS011;32313;48.722;9.362;2023-04-25T07:08:47;5.90;;;5.43;;
46589;SDS011;32313;48.722;9.362;2023-04-25T07:11:12;5.43;;;5.03;;
46589;SDS011;32313;48.722;9.362;2023-04-25T07:13:39;6.13;;;5.33;;
46589;SDS011;32313;48.722;9.362;2023-04-25T07:16:05;5.93;;;5.53;;
46589;SDS011;32313;48.722;9.362;2023-04-25T07:18:33;5.47;;;5.00;;
46589;SDS011;32313;48.722;9.362;2023-04-25T07:20:59;6.17;;;5.67;;
46589;SDS011;32313;48.722;9.362;2023-04-25T07:23:26;5.50;;;4.97;;
46589;SDS011;32313;48.722;9.362;2023-04-25T07:25:52;5.83;;;5.33;;
46589;SDS011;32313;48.722;9.362;2023-04-25T07:28:21;6.20;;;5.70;;
46589;SDS011;32313;48.722;9.362;2023-04-25T07:30:46;6.10;;;5.60;;
46589;SDS011;32313;48.722;9.362;2023-04-25T07:33:12;6.10;;;5.60;;
46589;SDS011;32313;48.722;9.362;2023-04-25T07:35:38;6.07;;;5.47;;
46589;SDS011;32313;48.722;9.362;2023-04-25T07:38:04;6.20;;;5.60;;
46589;SDS011;32313;48.722;9.362;2023-04-25T07:40:32;5.30;;;4.90;;
46589;SDS011;32313;48.722;9.362;2023-04-25T07:43:04;5.77;;;5.37;;
46589;SDS011;32313;48.722;9.362;2023-04-25T07:45:42;5.53;;;5.13;;
46589;SDS011;32313;48.722;9.362;2023-04-25T07:48:09;6.63;;;5.63;;
46589;SDS011;32313;48.722;9.362;2023-04-25T07:50:37;6.37;;;5.93;;
46589;SDS011;32313;48.722;9.362;2023-04-25T07:53:03;6.70;;;6.07;;
46589;SDS011;32313;48.722;9.362;2023-04-25T07:55:36;6.70;;;6.10;;
46589;SDS011;32313;48.722;9.362;2023-04-25T07:58:13;6.83;;;6.33;;
46589;SDS011;32313;48.722;9.362;2023-04-25T08:00:42;6.80;;;6.20;;
46589;SDS011;32313;48.722;9.362;2023-04-25T08:03:23;6.93;;;6.43;;
46589;SDS011;32313;48.722;9.362;2023-04-25T08:05:49;6.47;;;5.97;;
46589;SDS011;32313;48.722;9.362;2023-04-25T08:08:17;6.57;;;6.07;;
46589;SDS011;32313;48.722;9.362;2023-04-25T08:10:42;6.80;;;6.30;;
46589;SDS011;32313;48.722;9.362;2023-04-25T08:13:08;7.77;;;7.17;;
46589;SDS011;32313;48.722;9.362;2023-04-25T08:15:35;7.00;;;6.40;;
46589;SDS011;32313;48.722;9.362;2023-04-25T08:18:01;7.47;;;6.87;;
46589;SDS011;32313;48.722;9.362;2023-04-25T08:20:26;7.87;;;7.23;;
46589;SDS011;32313;48.722;9.362;2023-04-25T08:22:55;8.03;;;7.43;;
46589;SDS011;32313;48.722;9.362;2023-04-25T08:25:42;7.77;;;7.17;;
46589;SDS011;32313;48.722;9.362;2023-04-25T08:28:10;6.93;;;6.40;;
46589;SDS011;32313;48.722;9.362;2023-04-25T08:30:36;8.27;;;7.57;;
46589;SDS011;32313;48.722;9.362;2023-04-25T08:33:03;7.93;;;7.33;;
46589;SDS011;32313;48.722;9.362;2023-04-25T08:35:54;8.87;;;8.10;;
46589;SDS011;32313;48.722;9.362;2023-04-25T08:38:20;9.07;;;7.50;;
46589;SDS011;32313;48.722;9.362;2023-04-25T08:40:48;8.27;;;7.57;;
46589;SDS011;32313;48.722;9.362;2023-04-25T08:43:18;8.50;;;7.83;;
46589;SDS011;32313;48.722;9.362;2023-04-25T08:45:45;7.87;;;7.17;;
46589;SDS011;32313;48.722;9.362;2023-04-25T08:48:19;8.83;;;7.93;;
46589;SDS011;32313;48.722;9.362;2023-04-25T08:50:50;10.00;;;9.10;;
46589;SDS011;32313;48.722;9.362;2023-04-25T08:53:28;10.37;;;9.47;;
46589;SDS011;32313;48.722;9.362;2023-04-25T08:55:58;9.43;;;8.67;;
46589;SDS011;32313;48.722;9.362;2023-04-25T08:58:27;10.67;;;9.70;;
46589;SDS011;32313;48.722;9.362;2023-04-25T09:00:53;9.77;;;8.47;;
46589;SDS011;32313;48.722;9.362;2023-04-25T09:03:21;11.73;;;10.73;;
46589;SDS011;32313;48.722;9.362;2023-04-25T09:05:48;10.47;;;9.57;;
46589;SDS011;32313;48.722;9.362;2023-04-25T09:08:15;10.90;;;9.90;;
46589;SDS011;32313;48.722;9.362;2023-04-25T09:10:42;10.80;;;9.90;;
46589;SDS011;32313;48.722;9.362;2023-04-25T09:13:09;12.83;;;11.10;;
46589;SDS011;32313;48.722;9.362;2023-04-25T09:16:21;12.13;;;10.90;;
46589;SDS011;32313;48.722;9.362;2023-04-25T09:19:22;11.33;;;10.33;;
46589;SDS011;32313;48.722;9.362;2023-04-25T09:21:50;11.13;;;10.23;;
46589;SDS011;32313;48.722;9.362;2023-04-25T09:24:19;11.13;;;10.17;;
46589;SDS011;32313;48.722;9.362;2023-04-25T09:27:06;10.43;;;9.53;;
46589;SDS011;32313;48.722;9.362;2023-04-25T09:29:36;11.80;;;10.70;;
46589;SDS011;32313;48.722;9.362;2023-04-25T09:32:10;11.87;;;10.67;;
46589;SDS011;32313;48.722;9.362;2023-04-25T09:34:51;11.23;;;10.13;;
46589;SDS011;32313;48.722;9.362;2023-04-25T09:37:22;11.70;;;10.70;;
46589;SDS011;32313;48.722;9.362;2023-04-25T09:40:19;11.43;;;10.33;;
46589;SDS011;32313;48.722;9.362;2023-04-25T09:42:53;11.10;;;10.00;;
46589;SDS011;32313;48.722;9.362;2023-04-25T09:45:19;11.83;;;10.73;;
46589;SDS011;32313;48.722;9.362;2023-04-25T09:47:44;12.33;;;10.63;;
46589;SDS011;32313;48.722;9.362;2023-04-25T09:50:15;13.23;;;12.03;;
46589;SDS011;32313;48.722;9.362;2023-04-25T09:53:01;12.27;;;11.17;;
46589;SDS011;32313;48.722;9.362;2023-04-25T09:55:32;11.40;;;10.30;;
46589;SDS011;32313;48.722;9.362;2023-04-25T09:58:00;12.77;;;11.63;;
46589;SDS011;32313;48.722;9.362;2023-04-25T10:00:34;11.93;;;10.93;;
46589;SDS011;32313;48.722;9.362;2023-04-25T10:03:11;11.53;;;10.43;;
46589;SDS011;32313;48.722;9.362;2023-04-25T10:05:54;12.67;;;11.57;;
46589;SDS011;32313;48.722;9.362;2023-04-25T10:08:24;10.03;;;9.13;;
46589;SDS011;32313;48.722;9.362;2023-04-25T10:10:51;14.23;;;12.83;;
46589;SDS011;32313;48.722;9.362;2023-04-25T10:13:17;11.67;;;10.67;;
46589;SDS011;32313;48.722;9.362;2023-04-25T10:15:43;11.10;;;10.10;;
46589;SDS011;32313;48.722;9.362;2023-04-25T10:18:09;12.90;;;11.57;;
46589;SDS011;32313;48.722;9.362;2023-04-25T10:20:36;12.50;;;11.40;;
46589;SDS011;32313;48.722;9.362;2023-04-25T10:23:12;12.37;;;11.20;;
46589;SDS011;32313;48.722;9.362;2023-04-25T10:25:40;13.17;;;11.90;;
46589;SDS011;32313;48.722;9.362;2023-04-25T10:28:06;12.43;;;11.23;;
46589;SDS011;32313;48.722;9.362;2023-04-25T10:30:32;13.50;;;12.20;;
46589;SDS011;32313;48.722;9.362;2023-04-25T10:32:58;12.97;;;11.53;;
46589;SDS011;32313;48.722;9.362;2023-04-25T10:35:25;12.23;;;11.00;;
46589;SDS011;32313;48.722;9.362;2023-04-25T10:41:03;10.63;;;9.40;;
46589;SDS011;32313;48.722;9.362;2023-04-25T10:45:55;12.77;;;11.27;;
46589;SDS011;32313;48.722;9.362;2023-04-25T10:48:24;12.00;;;10.53;;
46589;SDS011;32313;48.722;9.362;2023-04-25T10:51:07;11.47;;;10.37;;
46589;SDS011;32313;48.722;9.362;2023-04-25T10:54:02;8.83;;;8.13;;
46589;SDS011;32313;48.722;9.362;2023-04-25T10:56:33;9.40;;;8.60;;
46589;SDS011;32313;48.722;9.362;2023-04-25T10:59:08;9.03;;;8.33;;
46589;SDS011;32313;48.722;9.362;2023-04-25T11:04:03;8.87;;;8.17;;
46589;SDS011;32313;48.722;9.362;2023-04-25T11:06:34;8.90;;;8.10;;
46589;SDS011;32313;48.722;9.362;2023-04-25T11:09:10;7.43;;;6.87;;
46589;SDS011;32313;48.722;9.362;2023-04-25T11:11:38;8.03;;;7.43;;
46589;SDS011;32313;48.722;9.362;2023-04-25T11:14:04;7.40;;;6.90;;
46589;SDS011;32313;48.722;9.362;2023-04-25T11:16:30;7.97;;;7.37;;
46589;SDS011;32313;48.722;9.362;2023-04-25T11:18:57;7.03;;;6.47;;
46589;SDS011;32313;48.722;9.362;2023-04-25T11:21:24;6.87;;;6.37;;
46589;SDS011;32313;48.722;9.362;2023-04-25T11:23:53;6.17;;;5.77;;
46589;SDS011;32313;48.722;9.362;2023-04-25T11:26:19;5.47;;;5.07;;
46589;SDS011;32313;48.722;9.362;2023-04-25T11:28:45;5.23;;;4.93;;
46589;SDS011;32313;48.722;9.362;2023-04-25T11:31:12;5.60;;;5.10;;
46589;SDS011;32313;48.722;9.362;2023-04-25T11:33:38;5.57;;;5.20;;
46589;SDS011;32313;48.722;9.362;2023-04-25T11:36:05;5.43;;;5.13;;
46589;SDS011;32313;48.722;9.362;2023-04-25T11:38:37;5.90;;;5.50;;
46589;SDS011;32313;48.722;9.362;2023-04-25T11:41:02;6.43;;;5.93;;
46589;SDS011;32313;48.722;9.362;2023-04-25T11:43:28;5.57;;;5.20;;
46589;SDS011;32313;48.722;9.362;2023-04-25T11:45:54;5.40;;;5.10;;
46589;SDS011;32313;48.722;9.362;2023-04-25T11:48:19;4.60;;;4.30;;
46589;SDS011;32313;48.722;9.362;2023-04-25T11:50:46;4.93;;;4.63;;
46589;SDS011;32313;48.722;9.362;2023-04-25T11:53:11;4.70;;;4.47;;
46589;SDS011;32313;48.722;9.362;2023-04-25T11:55:38;5.10;;;4.80;;
46589;SDS011;32313;48.722;9.362;2023-04-25T11:58:05;5.23;;;4.83;;
46589;SDS011;32313;48.722;9.362;2023-04-25T12:00:30;4.97;;;4.60;;
46589;SDS011;32313;48.722;9.362;2023-04-25T12:02:57;4.37;;;4.07;;
46589;SDS011;32313;48.722;9.362;2023-04-25T12:05:24;5.20;;;4.80;;
46589;SDS011;32313;48.722;9.362;2023-04-25T12:07:51;4.50;;;4.30;;
46589;SDS011;32313;48.722;9.362;2023-04-25T12:10:17;4.63;;;4.33;;
46589;SDS011;32313;48.722;9.362;2023-04-25T12:12:47;5.67;;;5.17;;
46589;SDS011;32313;48.722;9.362;2023-04-25T12:15:14;5.00;;;4.70;;
46589;SDS011;32313;48.722;9.362;2023-04-25T12:17:45;5.53;;;5.23;;
46589;SDS011;32313;48.722;9.362;2023-04-25T12:20:21;5.40;;;5.00;;
46589;SDS011;32313;48.722;9.362;2023-04-25T12:22:50;6.40;;;6.00;;
46589;SDS011;32313;48.722;9.362;2023-04-25T12:28:10;5.13;;;4.83;;
46589;SDS011;32313;48.722;9.362;2023-04-25T12:33:21;5.57;;;5.17;;
46589;SDS011;32313;48.722;9.362;2023-04-25T12:35:47;6.03;;;5.63;;
46589;SDS011;32313;48.722;9.362;2023-04-25T12:38:22;5.67;;;5.33;;
46589;SDS011;32313;48.722;9.362;2023-04-25T12:40:54;6.33;;;5.93;;
46589;SDS011;32313;48.722;9.362;2023-04-25T12:43:20;6.00;;;5.57;;
46589;SDS011;32313;48.722;9.362;2023-04-25T12:45:50;5.90;;;5.50;;
46589;SDS011;32313;48.722;9.362;2023-04-25T12:48:29;6.13;;;5.73;;
46589;SDS011;32313;48.722;9.362;2023-04-25T12:50:54;6.43;;;5.97;;
46589;SDS011;32313;48.722;9.362;2023-04-25T12:53:20;6.40;;;5.90;;
46589;SDS011;32313;48.722;9.362;2023-04-25T12:55:47;6.97;;;6.07;;
46589;SDS011;32313;48.722;9.362;2023-04-25T12:58:13;6.47;;;5.97;;
46589;SDS011;32313;48.722;9.362;2023-04-25T13:00:39;6.70;;;6.20;;
46589;SDS011;32313;48.722;9.362;2023-04-25T13:03:05;6.50;;;6.00;;
46589;SDS011;32313;48.722;9.362;2023-04-25T13:05:31;6.80;;;6.20;;
46589;SDS011;32313;48.722;9.362;2023-04-25T13:07:57;7.30;;;6.70;;
46589;SDS011;32313;48.722;9.362;2023-04-25T13:10:22;7.50;;;6.90;;
46589;SDS011;32313;48.722;9.362;2023-04-25T13:12:48;8.33;;;7.53;;
46589;SDS011;32313;48.722;9.362;2023-04-25T13:15:14;7.90;;;7.20;;
46589;SDS011;32313;48.722;9.362;2023-04-25T13:17:41;103.27;;;15.37;;
46589;SDS011;32313;48.722;9.362;2023-04-25T13:20:07;8.63;;;7.93;;
46589;SDS011;32313;48.722;9.362;2023-04-25T13:22:34;10.13;;;8.00;;
46589;SDS011;32313;48.722;9.362;2023-04-25T13:25:06;8.27;;;7.47;;
46589;SDS011;32313;48.722;9.362;2023-04-25T13:27:33;7.43;;;6.83;;
46589;SDS011;32313;48.722;9.362;2023-04-25T13:30:01;8.33;;;7.53;;
46589;SDS011;32313;48.722;9.362;2023-04-25T13:32:32;7.50;;;6.90;;
46589;SDS011;32313;48.722;9.362;2023-04-25T13:35:06;6.10;;;5.70;;
46589;SDS011;32313;48.722;9.362;2023-04-25T13:37:37;6.77;;;6.23;;
46589;SDS011;32313;48.722;9.362;2023-04-25T13:40:04;6.70;;;6.20;;
46589;SDS011;32313;48.722;9.362;2023-04-25T13:42:34;5.90;;;5.40;;
46589;SDS011;32313;48.722;9.362;2023-04-25T13:45:01;6.00;;;5.53;;
46589;SDS011;32313;48.722;9.362;2023-04-25T13:47:29;5.90;;;5.40;;
46589;SDS011;32313;48.722;9.362;2023-04-25T13:49:55;5.73;;;5.23;;
46589;SDS011;32313;48.722;9.362;2023-04-25T13:52:21;5.43;;;4.93;;
46589;SDS011;32313;48.722;9.362;2023-04-25T13:54:49;5.90;;;5.50;;
46589;SDS011;32313;48.722;9.362;2023-04-25T13:57:14;5.47;;;4.97;;
46589;SDS011;32313;48.722;9.362;2023-04-25T13:59:41;6.23;;;5.60;;
46589;SDS011;32313;48.722;9.362;2023-04-25T14:02:06;6.87;;;6.27;;
46589;SDS011;32313;48.722;9.362;2023-04-25T14:04:33;6.30;;;5.80;;
46589;SDS011;32313;48.722;9.362;2023-04-25T14:06:58;6.67;;;5.97;;
46589;SDS011;32313;48.722;9.362;2023-04-25T14:09:24;5.60;;;5.10;;
46589;SDS011;32313;48.722;9.362;2023-04-25T14:11:52;6.10;;;5.60;;
46589;SDS011;32313;48.722;9.362;2023-04-25T14:14:18;6.60;;;5.97;;
46589;SDS011;32313;48.722;9.362;2023-04-25T14:16:44;6.20;;;5.70;;
46589;SDS011;32313;48.722;9.362;2023-04-25T14:19:10;6.20;;;5.60;;
46589;SDS011;32313;48.722;9.362;2023-04-25T14:21:36;6.67;;;6.07;;
46589;SDS011;32313;48.722;9.362;2023-04-25T14:24:01;7.30;;;6.70;;
46589;SDS011;32313;48.722;9.362;2023-04-25T14:26:27;6.40;;;5.80;;
46589;SDS011;32313;48.722;9.362;2023-04-25T14:28:53;7.67;;;6.97;;
46589;SDS011;32313;48.722;9.362;2023-04-25T14:31:18;6.27;;;5.40;;
46589;SDS011;32313;48.722;9.362;2023-04-25T14:33:44;7.33;;;6.63;;
46589;SDS011;32313;48.722;9.362;2023-04-25T14:36:10;7.87;;;7.17;;
46589;SDS011;32313;48.722;9.362;2023-04-25T14:38:36;6.57;;;6.00;;
46589;SDS011;32313;48.722;9.362;2023-04-25T14:41:01;7.83;;;7.13;;
46589;SDS011;32313;48.722;9.362;2023-04-25T14:43:27;7.97;;;7.27;;
46589;SDS011;32313;48.722;9.362;2023-04-25T14:45:53;10.23;;;7.47;;
46589;SDS011;32313;48.722;9.362;2023-04-25T14:48:19;8.57;;;7.77;;
46589;SDS011;32313;48.722;9.362;2023-04-25T14:50:45;8.47;;;7.67;;
46589;SDS011;32313;48.722;9.362;2023-04-25T14:53:11;8.30;;;7.37;;
46589;SDS011;32313;48.722;9.362;2023-04-25T14:55:37;7.43;;;6.73;;
46589;SDS011;32313;48.722;9.362;2023-04-25T14:58:03;6.90;;;6.27;;
46589;SDS011;32313;48.722;9.362;2023-04-25T15:00:29;7.10;;;6.13;;
46589;SDS011;32313;48.722;9.362;2023-04-25T15:02:56;6.73;;;6.03;;
46589;SDS011;32313;48.722;9.362;2023-04-25T15:05:23;7.20;;;6.60;;
46589;SDS011;32313;48.722;9.362;2023-04-25T15:07:48;7.47;;;6.77;;
46589;SDS011;32313;48.722;9.362;2023-04-25T15:10:14;8.10;;;7.30;;